Time;durP1;ratioP1;P1;durP2;ratioP2;P2;SDS_P1;SDS_P2;PMS_P1;PMS_P2;Temp;Humidity;BMP_temperature;BMP_pressure;BME280_temperature;BME280_humidity;BME280_pressure;Samples;Min_cycle;Max_cycle;Signal;HPM_P1;HPM_P2
2022/10/21 00:01:53;;;;;;;31.35;20.60;;;;;;;;;;5059266;28;20297;-61
2022/10/21 00:04:20;;;;;;;31.63;21.25;;;;;;;;;;5068951;28;20624;-61
2022/10/21 00:06:47;;;;;;;32.53;20.50;;;;;;;;;;5067086;28;20308;-61
2022/10/21 00:09:14;;;;;;;34.95;19.75;;;;;;;;;;5058561;28;20312;-62
2022/10/21 00:11:42;;;;;;;32.05;20.15;;;;;;;;;;5058106;28;20204;-62
2022/10/21 00:14:09;;;;;;;30.08;20.65;;;;;;;;;;5055133;28;20216;-61
2022/10/21 00:16:36;;;;;;;27.85;19.52;;;;;;;;;;5062035;28;20202;-64
2022/10/21 00:19:04;;;;;;;29.42;20.75;;;;;;;;;;5067302;28;20711;-62
2022/10/21 00:21:31;;;;;;;26.55;18.63;;;;;;;;;;5061407;28;20193;-61
2022/10/21 00:23:58;;;;;;;34.95;19.60;;;;;;;;;;5063246;28;20300;-62
2022/10/21 00:26:26;;;;;;;31.52;20.48;;;;;;;;;;5069465;28;20240;-62
2022/10/21 00:28:56;;;;;;;29.50;19.40;;;;;;;;;;5062484;28;20219;-62
2022/10/21 00:31:24;;;;;;;31.63;19.35;;;;;;;;;;5087850;28;20206;-63
2022/10/21 00:33:51;;;;;;;32.42;19.65;;;;;;;;;;5064650;28;20205;-63
2022/10/21 00:36:19;;;;;;;28.58;17.38;;;;;;;;;;5067436;28;20233;-64
2022/10/21 00:38:47;;;;;;;26.23;17.15;;;;;;;;;;5062268;28;20237;-64
2022/10/21 00:41:16;;;;;;;27.40;15.80;;;;;;;;;;5063826;28;20923;-63
2022/10/21 00:44:03;;;;;;;20.85;15.68;;;;;;;;;;5057253;28;20232;-62
2022/10/21 00:46:40;;;;;;;18.90;12.82;;;;;;;;;;5061621;28;20284;-63
2022/10/21 00:49:10;;;;;;;22.33;10.85;;;;;;;;;;5070040;28;20213;-63
2022/10/21 00:51:37;;;;;;;16.15;9.05;;;;;;;;;;5052801;28;20206;-62
2022/10/21 00:54:05;;;;;;;15.45;9.43;;;;;;;;;;5063201;28;20194;-64
2022/10/21 00:56:33;;;;;;;15.52;8.50;;;;;;;;;;5081224;28;20201;-63
2022/10/21 00:59:02;;;;;;;18.38;8.50;;;;;;;;;;5057491;28;20659;-61
2022/10/21 01:01:29;;;;;;;12.45;7.07;;;;;;;;;;5055423;28;20793;-63
2022/10/21 01:03:57;;;;;;;14.95;8.25;;;;;;;;;;5063527;28;20786;-63
2022/10/21 01:06:25;;;;;;;9.27;6.22;;;;;;;;;;5055456;28;20214;-62
2022/10/21 01:08:53;;;;;;;12.02;7.00;;;;;;;;;;5077759;28;20228;-62
2022/10/21 01:11:21;;;;;;;10.43;4.85;;;;;;;;;;5057303;28;21826;-62
2022/10/21 01:13:53;;;;;;;9.13;4.97;;;;;;;;;;5058531;28;20213;-64
2022/10/21 01:16:24;;;;;;;14.35;5.10;;;;;;;;;;5054678;28;20292;-63
2022/10/21 01:19:03;;;;;;;5.97;4.78;;;;;;;;;;5060803;28;20221;-63
2022/10/21 01:21:33;;;;;;;9.48;4.55;;;;;;;;;;5047974;28;20332;-61
2022/10/21 01:24:12;;;;;;;10.82;4.40;;;;;;;;;;5070349;28;20276;-62
2022/10/21 01:26:39;;;;;;;9.48;4.72;;;;;;;;;;5068311;28;20260;-62
2022/10/21 01:29:07;;;;;;;11.98;4.53;;;;;;;;;;5052744;28;20228;-62
2022/10/21 01:31:40;;;;;;;12.45;4.45;;;;;;;;;;5063902;28;20209;-62
2022/10/21 01:34:17;;;;;;;8.10;3.83;;;;;;;;;;5055449;28;20205;-62
2022/10/21 01:36:44;;;;;;;7.07;4.00;;;;;;;;;;5068155;28;20281;-62
2022/10/21 01:39:18;;;;;;;12.48;4.25;;;;;;;;;;5061885;28;20235;-61
2022/10/21 01:41:54;;;;;;;10.07;4.07;;;;;;;;;;5076586;28;20222;-64
2022/10/21 01:44:27;;;;;;;7.78;4.45;;;;;;;;;;5060761;28;20328;-61
2022/10/21 01:47:00;;;;;;;12.57;5.38;;;;;;;;;;5052573;28;20308;-61
2022/10/21 01:49:56;;;;;;;10.30;5.70;;;;;;;;;;5043599;28;20299;-61
2022/10/21 01:52:24;;;;;;;9.32;5.22;;;;;;;;;;5038708;28;20208;-62
2022/10/21 01:54:54;;;;;;;10.27;5.80;;;;;;;;;;5048559;28;20309;-62
2022/10/21 01:57:24;;;;;;;10.32;6.22;;;;;;;;;;5065265;28;20201;-63
2022/10/21 01:59:51;;;;;;;11.85;6.60;;;;;;;;;;5055377;28;20210;-62
2022/10/21 02:02:20;;;;;;;12.00;6.25;;;;;;;;;;5053275;28;20317;-63
2022/10/21 02:04:50;;;;;;;11.40;6.65;;;;;;;;;;5060105;28;21441;-61
2022/10/21 02:07:18;;;;;;;13.50;6.47;;;;;;;;;;5043283;28;20233;-63
2022/10/21 02:09:45;;;;;;;11.32;6.85;;;;;;;;;;5051649;28;20260;-62
2022/10/21 02:12:13;;;;;;;13.52;7.35;;;;;;;;;;5050758;28;20759;-61
2022/10/21 02:14:48;;;;;;;12.75;6.85;;;;;;;;;;5057616;28;20221;-62
2022/10/21 02:17:17;;;;;;;12.23;7.95;;;;;;;;;;5054438;28;20206;-61
2022/10/21 02:19:45;;;;;;;22.95;14.50;;;;;;;;;;5059464;28;20307;-62
2022/10/21 02:22:14;;;;;;;32.47;20.83;;;;;;;;;;5050292;28;20249;-63
2022/10/21 02:24:45;;;;;;;24.88;15.55;;;;;;;;;;5062617;28;20217;-61
2022/10/21 02:27:13;;;;;;;15.93;9.88;;;;;;;;;;5047765;28;20320;-61
2022/10/21 02:29:42;;;;;;;13.77;8.15;;;;;;;;;;5051810;28;20252;-62
2022/10/21 02:32:32;;;;;;;16.98;7.35;;;;;;;;;;5062116;28;20292;-62
2022/10/21 02:34:59;;;;;;;13.38;6.38;;;;;;;;;;5044683;28;20237;-62
2022/10/21 02:37:33;;;;;;;12.65;6.90;;;;;;;;;;5061828;28;20284;-62
2022/10/21 02:40:13;;;;;;;12.65;7.10;;;;;;;;;;5056668;28;20251;-62
2022/10/21 02:42:43;;;;;;;15.40;7.43;;;;;;;;;;5059254;28;20209;-62
2022/10/21 02:45:11;;;;;;;13.13;8.98;;;;;;;;;;5051611;28;20209;-64
2022/10/21 02:47:39;;;;;;;15.52;9.15;;;;;;;;;;5062831;28;20341;-63
2022/10/21 02:50:07;;;;;;;22.35;12.07;;;;;;;;;;5057346;28;20263;-63
2022/10/21 02:52:34;;;;;;;19.08;10.00;;;;;;;;;;5062453;28;20288;-61
2022/10/21 02:55:01;;;;;;;16.33;9.70;;;;;;;;;;5062977;28;20216;-60
2022/10/21 02:57:28;;;;;;;12.38;8.07;;;;;;;;;;5063869;28;20284;-61
2022/10/21 02:59:56;;;;;;;13.57;6.90;;;;;;;;;;5065853;28;20214;-60
2022/10/21 03:02:23;;;;;;;10.43;6.68;;;;;;;;;;5065535;28;20233;-62
2022/10/21 03:04:50;;;;;;;10.38;6.72;;;;;;;;;;5069718;28;20221;-61
2022/10/21 03:07:18;;;;;;;13.45;6.68;;;;;;;;;;5062901;28;20261;-61
2022/10/21 03:09:45;;;;;;;10.70;5.20;;;;;;;;;;5070544;28;20307;-61
2022/10/21 03:12:12;;;;;;;11.90;4.72;;;;;;;;;;5063042;28;20711;-61
2022/10/21 03:14:39;;;;;;;6.85;4.40;;;;;;;;;;5060562;28;20668;-63
2022/10/21 03:17:07;;;;;;;6.85;4.03;;;;;;;;;;5069777;28;20202;-60
2022/10/21 03:19:34;;;;;;;7.57;4.22;;;;;;;;;;5062435;28;20726;-63
2022/10/21 03:22:01;;;;;;;10.25;4.18;;;;;;;;;;5053342;28;20197;-61
2022/10/21 03:24:28;;;;;;;10.90;4.43;;;;;;;;;;5057877;28;20209;-63
2022/10/21 03:26:56;;;;;;;10.73;4.40;;;;;;;;;;5060559;28;20225;-63
2022/10/21 03:29:23;;;;;;;12.57;4.65;;;;;;;;;;5055855;28;20226;-63
2022/10/21 03:31:51;;;;;;;10.18;4.25;;;;;;;;;;5071650;28;20667;-61
2022/10/21 03:34:18;;;;;;;10.98;4.25;;;;;;;;;;5042988;28;20292;-62
2022/10/21 03:36:46;;;;;;;9.38;4.35;;;;;;;;;;5064620;28;20300;-62
2022/10/21 03:39:13;;;;;;;12.55;6.38;;;;;;;;;;5064284;28;20221;-62
2022/10/21 03:41:40;;;;;;;10.27;4.78;;;;;;;;;;5071042;28;20673;-62
2022/10/21 03:44:07;;;;;;;10.70;4.50;;;;;;;;;;5073150;28;20746;-63
2022/10/21 03:46:35;;;;;;;8.05;3.67;;;;;;;;;;5063774;28;20225;-62
2022/10/21 03:49:02;;;;;;;9.55;4.38;;;;;;;;;;5065715;28;20972;-63
2022/10/21 03:51:32;;;;;;;7.63;3.58;;;;;;;;;;5073313;28;20244;-63
2022/10/21 03:54:00;;;;;;;9.00;4.03;;;;;;;;;;5057706;28;20280;-62
2022/10/21 03:56:28;;;;;;;8.95;3.83;;;;;;;;;;5081730;28;20295;-62
2022/10/21 03:58:55;;;;;;;9.30;4.18;;;;;;;;;;5071384;28;20231;-62
2022/10/21 04:01:25;;;;;;;12.07;4.50;;;;;;;;;;5071083;28;20210;-62
2022/10/21 04:03:53;;;;;;;7.75;3.75;;;;;;;;;;5064908;28;20221;-61
2022/10/21 04:06:20;;;;;;;9.57;4.43;;;;;;;;;;5069946;28;20301;-61
2022/10/21 04:08:47;;;;;;;9.15;4.22;;;;;;;;;;5060753;28;20336;-62
2022/10/21 04:11:14;;;;;;;9.73;3.67;;;;;;;;;;5076091;28;20224;-62
2022/10/21 04:13:42;;;;;;;9.73;3.75;;;;;;;;;;5061980;28;20220;-62
2022/10/21 04:16:13;;;;;;;8.50;4.18;;;;;;;;;;5060227;28;20209;-63
2022/10/21 04:18:40;;;;;;;11.35;3.55;;;;;;;;;;5065084;28;20331;-62
2022/10/21 04:21:08;;;;;;;9.55;3.70;;;;;;;;;;5075289;28;20202;-61
2022/10/21 04:23:35;;;;;;;7.97;3.60;;;;;;;;;;5058479;28;20198;-62
2022/10/21 04:26:03;;;;;;;11.43;4.07;;;;;;;;;;5048629;28;20629;-61
2022/10/21 04:28:31;;;;;;;9.80;4.10;;;;;;;;;;5058450;28;20237;-61
2022/10/21 04:30:58;;;;;;;10.25;4.00;;;;;;;;;;5064528;28;20229;-62
2022/10/21 04:33:25;;;;;;;8.15;3.92;;;;;;;;;;5062204;28;20770;-64
2022/10/21 04:35:53;;;;;;;10.15;3.90;;;;;;;;;;5063619;28;20197;-63
2022/10/21 04:38:21;;;;;;;9.15;4.38;;;;;;;;;;5060252;28;20233;-61
2022/10/21 04:40:54;;;;;;;10.93;4.80;;;;;;;;;;5069465;28;20213;-62
2022/10/21 04:43:22;;;;;;;11.70;4.53;;;;;;;;;;5048598;28;20294;-63
2022/10/21 04:45:49;;;;;;;6.50;3.95;;;;;;;;;;5045915;28;20206;-64
2022/10/21 04:48:16;;;;;;;10.30;3.85;;;;;;;;;;5054478;28;20240;-64
2022/10/21 04:50:44;;;;;;;8.75;4.00;;;;;;;;;;5056078;28;20301;-63
2022/10/21 04:53:11;;;;;;;12.13;5.15;;;;;;;;;;5054669;28;20214;-61
2022/10/21 04:55:39;;;;;;;9.38;5.18;;;;;;;;;;5057424;28;20219;-62
2022/10/21 04:58:06;;;;;;;12.63;4.75;;;;;;;;;;5055836;28;20225;-62
2022/10/21 05:00:34;;;;;;;9.05;5.32;;;;;;;;;;5054024;28;20301;-61
2022/10/21 05:03:01;;;;;;;11.25;5.57;;;;;;;;;;5059173;28;20220;-61
2022/10/21 05:05:29;;;;;;;9.98;5.28;;;;;;;;;;5052899;28;20224;-63
2022/10/21 05:07:56;;;;;;;8.70;5.10;;;;;;;;;;5057364;28;20771;-62
2022/10/21 05:10:25;;;;;;;13.43;5.55;;;;;;;;;;5056392;28;20301;-62
2022/10/21 05:12:52;;;;;;;10.32;4.95;;;;;;;;;;5057350;28;20202;-61
2022/10/21 05:15:21;;;;;;;12.90;5.32;;;;;;;;;;5064373;28;20300;-62
2022/10/21 05:17:48;;;;;;;12.63;5.38;;;;;;;;;;5058981;28;20307;-63
2022/10/21 05:20:16;;;;;;;9.98;5.07;;;;;;;;;;5051102;28;20206;-63
2022/10/21 05:22:43;;;;;;;11.02;5.07;;;;;;;;;;5057460;28;20226;-61
2022/10/21 05:25:10;;;;;;;9.93;5.40;;;;;;;;;;5057320;28;20318;-61
2022/10/21 05:27:38;;;;;;;8.98;5.53;;;;;;;;;;5064634;28;20225;-63
2022/10/21 05:30:05;;;;;;;11.48;5.18;;;;;;;;;;5055912;28;20197;-62
2022/10/21 05:32:33;;;;;;;8.15;5.57;;;;;;;;;;5069616;28;20228;-62
2022/10/21 05:35:00;;;;;;;10.00;5.50;;;;;;;;;;5058874;28;20710;-62
2022/10/21 05:37:28;;;;;;;18.48;12.77;;;;;;;;;;5060476;28;20304;-61
2022/10/21 05:39:55;;;;;;;13.45;9.52;;;;;;;;;;5070254;28;20220;-62
2022/10/21 05:42:22;;;;;;;11.35;7.18;;;;;;;;;;5051452;28;20761;-63
2022/10/21 05:44:49;;;;;;;13.57;6.55;;;;;;;;;;5061843;28;20198;-63
2022/10/21 05:47:17;;;;;;;18.00;10.40;;;;;;;;;;5061303;28;20228;-62
2022/10/21 05:49:44;;;;;;;13.93;9.63;;;;;;;;;;5061562;28;20243;-63
2022/10/21 05:52:12;;;;;;;18.73;8.27;;;;;;;;;;5059965;28;20608;-62
2022/10/21 05:54:39;;;;;;;12.65;7.70;;;;;;;;;;5051684;28;20205;-62
2022/10/21 05:57:06;;;;;;;14.45;7.47;;;;;;;;;;5057514;28;20240;-61
2022/10/21 05:59:34;;;;;;;11.10;7.25;;;;;;;;;;5061620;28;20711;-61
2022/10/21 06:02:01;;;;;;;11.95;7.40;;;;;;;;;;5060461;28;20307;-62
2022/10/21 06:04:28;;;;;;;12.27;7.90;;;;;;;;;;5055268;28;20301;-61
2022/10/21 06:06:58;;;;;;;10.95;7.60;;;;;;;;;;5062286;28;20226;-61
2022/10/21 06:09:25;;;;;;;9.55;7.10;;;;;;;;;;5061163;28;20601;-62
2022/10/21 06:11:53;;;;;;;7.97;6.15;;;;;;;;;;5057184;28;20202;-62
2022/10/21 06:14:20;;;;;;;8.18;5.97;;;;;;;;;;5060259;28;20661;-62
2022/10/21 06:16:47;;;;;;;13.82;6.80;;;;;;;;;;5056560;28;20659;-64
2022/10/21 06:19:14;;;;;;;12.98;7.20;;;;;;;;;;5057912;28;20276;-61
2022/10/21 06:21:42;;;;;;;14.77;8.30;;;;;;;;;;5064294;28;20293;-63
2022/10/21 06:24:09;;;;;;;11.93;6.72;;;;;;;;;;5071667;28;20202;-63
2022/10/21 06:26:36;;;;;;;9.63;7.10;;;;;;;;;;5065931;28;20293;-62
2022/10/21 06:29:04;;;;;;;11.02;7.45;;;;;;;;;;5072380;28;20845;-63
2022/10/21 06:31:31;;;;;;;14.95;8.02;;;;;;;;;;5061292;28;20205;-60
2022/10/21 06:33:58;;;;;;;14.27;8.13;;;;;;;;;;5065911;28;20301;-61
2022/10/21 06:36:26;;;;;;;14.23;7.50;;;;;;;;;;5079412;28;20679;-61
2022/10/21 06:38:53;;;;;;;10.43;7.47;;;;;;;;;;5078524;28;20257;-61
2022/10/21 06:41:20;;;;;;;11.23;7.18;;;;;;;;;;5065015;28;20284;-63
2022/10/21 06:43:48;;;;;;;9.82;6.90;;;;;;;;;;5057550;28;20301;-62
2022/10/21 06:46:15;;;;;;;10.38;6.85;;;;;;;;;;5076304;28;20209;-61
2022/10/21 06:48:42;;;;;;;14.27;7.85;;;;;;;;;;5051985;28;20235;-61
2022/10/21 06:51:16;;;;;;;10.63;7.43;;;;;;;;;;5050811;28;20627;-62
2022/10/21 06:53:43;;;;;;;15.18;8.70;;;;;;;;;;5050060;28;20212;-61
2022/10/21 06:56:18;;;;;;;12.23;7.70;;;;;;;;;;5050032;28;20239;-61
2022/10/21 06:58:47;;;;;;;13.35;10.25;;;;;;;;;;5049598;28;20371;-63
2022/10/21 07:01:14;;;;;;;12.68;7.97;;;;;;;;;;5049740;28;20339;-62
2022/10/21 07:04:00;;;;;;;11.82;7.78;;;;;;;;;;5030855;28;20298;-61
2022/10/21 07:06:27;;;;;;;10.02;6.80;;;;;;;;;;5028692;28;20213;-62
2022/10/21 07:08:55;;;;;;;10.65;6.22;;;;;;;;;;5047954;28;20229;-61
2022/10/21 07:11:26;;;;;;;8.40;6.50;;;;;;;;;;5049396;28;20209;-61
2022/10/21 07:13:53;;;;;;;12.23;6.68;;;;;;;;;;5037729;28;20209;-62
2022/10/21 07:16:20;;;;;;;10.52;6.65;;;;;;;;;;5040218;28;20603;-62
2022/10/21 07:18:48;;;;;;;9.65;6.30;;;;;;;;;;5039169;28;20236;-62
2022/10/21 07:21:19;;;;;;;11.48;6.32;;;;;;;;;;5037006;28;23160;-61
2022/10/21 07:23:49;;;;;;;11.95;6.50;;;;;;;;;;5054455;28;21618;-62
2022/10/21 07:26:17;;;;;;;9.45;6.13;;;;;;;;;;5031619;28;23375;-61
2022/10/21 07:28:46;;;;;;;10.40;6.45;;;;;;;;;;5045614;28;20232;-61
2022/10/21 07:31:17;;;;;;;10.38;6.25;;;;;;;;;;5052416;28;20225;-62
2022/10/21 07:33:46;;;;;;;13.18;7.25;;;;;;;;;;5055851;28;20210;-61
2022/10/21 07:36:14;;;;;;;14.93;11.45;;;;;;;;;;5065091;28;20304;-61
2022/10/21 07:38:45;;;;;;;17.15;11.57;;;;;;;;;;5050229;28;21455;-62
2022/10/21 07:41:16;;;;;;;15.52;8.57;;;;;;;;;;5052342;28;20249;-63
2022/10/21 07:43:44;;;;;;;10.77;7.57;;;;;;;;;;5047158;28;20291;-61
2022/10/21 07:46:11;;;;;;;12.45;7.32;;;;;;;;;;5043047;28;20205;-63
2022/10/21 07:48:39;;;;;;;11.68;6.90;;;;;;;;;;5041423;28;20261;-61
2022/10/21 07:51:08;;;;;;;9.82;7.57;;;;;;;;;;5039283;28;20207;-61
2022/10/21 07:53:36;;;;;;;11.20;6.40;;;;;;;;;;5044989;28;20209;-61
2022/10/21 07:56:05;;;;;;;15.18;6.85;;;;;;;;;;5053184;28;20298;-61
2022/10/21 07:58:33;;;;;;;16.52;9.23;;;;;;;;;;5039751;28;20230;-61
2022/10/21 08:01:01;;;;;;;10.88;9.05;;;;;;;;;;5061526;28;20279;-62
2022/10/21 08:03:28;;;;;;;11.45;8.70;;;;;;;;;;5054447;28;20210;-61
2022/10/21 08:05:56;;;;;;;11.77;8.38;;;;;;;;;;5050530;28;20209;-61
2022/10/21 08:08:24;;;;;;;12.00;7.05;;;;;;;;;;5058039;28;20295;-63
2022/10/21 08:10:52;;;;;;;9.15;6.05;;;;;;;;;;5050490;28;20210;-62
2022/10/21 08:13:19;;;;;;;9.85;5.45;;;;;;;;;;5052949;28;20218;-64
2022/10/21 08:15:48;;;;;;;12.80;5.72;;;;;;;;;;5057672;28;20576;-62
2022/10/21 08:18:16;;;;;;;8.48;4.75;;;;;;;;;;5072156;28;20328;-61
2022/10/21 08:20:44;;;;;;;9.55;4.93;;;;;;;;;;5059211;28;20229;-61
2022/10/21 08:23:13;;;;;;;10.40;5.32;;;;;;;;;;5056101;28;20271;-61
2022/10/21 08:25:46;;;;;;;9.07;4.82;;;;;;;;;;5080930;28;20290;-61
2022/10/21 08:28:13;;;;;;;7.75;4.57;;;;;;;;;;5048196;28;20244;-61
2022/10/21 08:30:41;;;;;;;8.57;4.75;;;;;;;;;;5062254;28;20206;-64
2022/10/21 08:33:08;;;;;;;9.65;4.57;;;;;;;;;;5075963;28;20220;-61
2022/10/21 08:35:36;;;;;;;9.18;5.13;;;;;;;;;;5058804;28;20205;-62
2022/10/21 08:38:03;;;;;;;10.13;5.30;;;;;;;;;;5080610;28;20623;-63
2022/10/21 08:40:35;;;;;;;8.35;5.25;;;;;;;;;;5082828;28;20560;-61
2022/10/21 08:43:09;;;;;;;12.40;6.53;;;;;;;;;;5058483;28;20202;-61
2022/10/21 08:46:09;;;;;;;10.85;5.93;;;;;;;;;;5064924;28;21724;-61
2022/10/21 08:48:39;;;;;;;7.72;5.50;;;;;;;;;;5032167;28;20234;-61
2022/10/21 08:51:10;;;;;;;11.30;8.00;;;;;;;;;;5076459;28;20209;-63
2022/10/21 08:53:40;;;;;;;10.82;6.32;;;;;;;;;;5059238;28;20207;-62
2022/10/21 08:56:14;;;;;;;8.93;4.93;;;;;;;;;;5071265;28;20304;-63
2022/10/21 08:58:47;;;;;;;8.27;4.72;;;;;;;;;;5066627;28;20221;-61
2022/10/21 09:01:45;;;;;;;10.90;6.63;;;;;;;;;;5071416;28;20196;-63
2022/10/21 09:04:18;;;;;;;8.23;4.85;;;;;;;;;;5056511;28;20623;-61
2022/10/21 09:06:55;;;;;;;6.50;4.40;;;;;;;;;;5056440;28;20292;-62
2022/10/21 09:09:47;;;;;;;12.70;6.18;;;;;;;;;;5053300;28;20239;-62
2022/10/21 09:12:38;;;;;;;13.45;7.03;;;;;;;;;;5055951;28;20259;-62
2022/10/21 09:15:11;;;;;;;9.63;5.55;;;;;;;;;;5053492;28;20221;-61
2022/10/21 09:18:00;;;;;;;12.20;5.88;;;;;;;;;;5058228;28;20216;-61
2022/10/21 09:20:36;;;;;;;11.25;6.00;;;;;;;;;;5051462;28;20279;-61
2022/10/21 09:23:03;;;;;;;12.50;7.57;;;;;;;;;;5052890;28;20202;-61
2022/10/21 09:25:37;;;;;;;9.75;6.50;;;;;;;;;;5064830;28;20224;-62
2022/10/21 09:28:10;;;;;;;6.38;5.00;;;;;;;;;;5054103;28;20228;-63
2022/10/21 09:30:38;;;;;;;11.52;5.28;;;;;;;;;;5061510;28;20245;-63
2022/10/21 09:33:19;;;;;;;9.70;4.50;;;;;;;;;;5053273;28;20217;-63
2022/10/21 09:35:50;;;;;;;12.57;5.20;;;;;;;;;;5056052;28;20210;-62
2022/10/21 09:38:22;;;;;;;8.15;4.72;;;;;;;;;;5057444;28;20224;-63
2022/10/21 09:40:51;;;;;;;6.68;4.35;;;;;;;;;;5054627;28;20686;-63
2022/10/21 09:43:22;;;;;;;9.98;4.72;;;;;;;;;;5066715;28;20241;-63
2022/10/21 09:45:49;;;;;;;8.20;5.05;;;;;;;;;;5052809;28;20210;-62
2022/10/21 09:48:19;;;;;;;13.95;4.70;;;;;;;;;;5058311;28;20276;-61
2022/10/21 09:50:59;;;;;;;7.65;4.82;;;;;;;;;;5059755;28;20280;-62
2022/10/21 09:53:28;;;;;;;11.30;5.18;;;;;;;;;;5063262;28;20385;-62
2022/10/21 09:56:00;;;;;;;9.23;4.85;;;;;;;;;;5067382;28;20751;-61
2022/10/21 09:58:43;;;;;;;8.75;5.13;;;;;;;;;;5058178;28;20234;-61
2022/10/21 10:01:20;;;;;;;6.88;4.40;;;;;;;;;;5056074;28;20296;-61
2022/10/21 10:03:51;;;;;;;6.45;4.60;;;;;;;;;;5062893;28;20236;-62
2022/10/21 10:06:36;;;;;;;9.65;4.05;;;;;;;;;;5072165;28;20701;-62
2022/10/21 10:09:07;;;;;;;8.32;4.72;;;;;;;;;;5056930;28;20261;-62
2022/10/21 10:11:47;;;;;;;7.30;4.00;;;;;;;;;;5059682;28;20625;-62
2022/10/21 10:14:23;;;;;;;7.55;3.50;;;;;;;;;;5066174;28;20292;-64
2022/10/21 10:16:50;;;;;;;6.50;3.40;;;;;;;;;;5069445;28;20218;-62
2022/10/21 10:19:20;;;;;;;5.60;3.83;;;;;;;;;;5065146;28;20319;-63
2022/10/21 10:22:06;;;;;;;6.93;2.95;;;;;;;;;;5059766;28;20228;-63
2022/10/21 10:24:39;;;;;;;4.93;3.60;;;;;;;;;;5073211;28;20198;-63
2022/10/21 10:27:27;;;;;;;4.38;2.72;;;;;;;;;;5056167;28;20210;-63
2022/10/21 10:29:59;;;;;;;4.82;2.80;;;;;;;;;;5046550;28;20213;-62
2022/10/21 10:32:30;;;;;;;4.82;2.85;;;;;;;;;;5044086;28;22417;-62
2022/10/21 10:35:01;;;;;;;4.35;2.67;;;;;;;;;;5019228;28;20220;-63
2022/10/21 10:37:33;;;;;;;3.33;2.92;;;;;;;;;;5046239;28;20271;-63
2022/10/21 10:40:02;;;;;;;4.88;2.80;;;;;;;;;;5038959;28;20209;-63
2022/10/21 10:42:33;;;;;;;4.85;2.90;;;;;;;;;;5038122;28;20739;-63
2022/10/21 10:45:05;;;;;;;4.25;2.80;;;;;;;;;;5043967;28;20305;-63
2022/10/21 10:47:47;;;;;;;6.07;3.13;;;;;;;;;;5051829;28;20213;-63
2022/10/21 10:50:33;;;;;;;3.60;3.13;;;;;;;;;;5050880;28;20220;-64
2022/10/21 10:53:20;;;;;;;3.53;3.13;;;;;;;;;;5037310;28;20209;-62
2022/10/21 10:55:50;;;;;;;4.60;3.40;;;;;;;;;;5043291;28;20299;-63
2022/10/21 10:58:18;;;;;;;4.50;3.00;;;;;;;;;;5034246;28;20248;-62
2022/10/21 11:00:51;;;;;;;5.90;3.33;;;;;;;;;;5041080;28;20213;-63
2022/10/21 11:03:22;;;;;;;5.80;3.30;;;;;;;;;;5054145;28;20309;-63
2022/10/21 11:05:54;;;;;;;3.22;2.83;;;;;;;;;;5055866;28;20597;-63
2022/10/21 11:08:22;;;;;;;4.80;2.80;;;;;;;;;;5050070;28;20232;-63
2022/10/21 11:10:55;;;;;;;3.95;2.88;;;;;;;;;;5049091;28;20205;-63
2022/10/21 11:13:23;;;;;;;5.43;2.75;;;;;;;;;;5061388;28;20219;-63
2022/10/21 11:16:10;;;;;;;8.30;2.60;;;;;;;;;;5062726;28;20198;-62
2022/10/21 11:18:40;;;;;;;3.92;2.90;;;;;;;;;;5054731;28;20252;-62
2022/10/21 11:21:26;;;;;;;3.40;2.40;;;;;;;;;;5063423;28;20203;-62
2022/10/21 11:23:59;;;;;;;5.65;2.67;;;;;;;;;;5050838;28;20218;-61
2022/10/21 11:26:43;;;;;;;4.25;2.30;;;;;;;;;;5057186;28;20208;-63
2022/10/21 11:29:11;;;;;;;3.95;2.38;;;;;;;;;;5047801;28;20230;-61
2022/10/21 11:31:52;;;;;;;5.78;2.45;;;;;;;;;;5047376;28;20206;-62
2022/10/21 11:34:37;;;;;;;3.45;2.40;;;;;;;;;;5050535;28;20205;-62
2022/10/21 11:37:18;;;;;;;3.40;2.15;;;;;;;;;;5051637;28;20201;-61
2022/10/21 11:39:52;;;;;;;4.38;2.00;;;;;;;;;;5042011;28;20387;-62
2022/10/21 11:42:30;;;;;;;3.47;1.80;;;;;;;;;;5057389;28;20672;-61
2022/10/21 11:45:00;;;;;;;3.15;1.77;;;;;;;;;;5039203;28;20205;-61
2022/10/21 11:47:32;;;;;;;3.33;1.67;;;;;;;;;;5043746;28;20301;-61
2022/10/21 11:50:03;;;;;;;3.08;1.52;;;;;;;;;;5048868;28;20312;-62
2022/10/21 11:52:36;;;;;;;1.33;1.23;;;;;;;;;;5072832;28;20213;-63
2022/10/21 11:55:23;;;;;;;5.40;1.25;;;;;;;;;;5063177;28;21949;-63
2022/10/21 11:57:50;;;;;;;4.47;1.55;;;;;;;;;;5078982;28;20221;-64
2022/10/21 12:00:23;;;;;;;2.20;1.10;;;;;;;;;;5049050;28;20213;-62
2022/10/21 12:03:09;;;;;;;1.95;1.48;;;;;;;;;;5052507;28;20847;-63
2022/10/21 12:05:46;;;;;;;2.20;1.27;;;;;;;;;;5056066;28;20268;-61
2022/10/21 12:08:21;;;;;;;2.38;1.92;;;;;;;;;;5065649;28;20746;-61
2022/10/21 12:10:56;;;;;;;1.10;1.00;;;;;;;;;;5054032;28;20248;-62
2022/10/21 12:13:28;;;;;;;0.88;0.80;;;;;;;;;;5058849;28;20292;-62
2022/10/21 12:16:05;;;;;;;1.52;0.95;;;;;;;;;;5056702;28;20200;-61
2022/10/21 12:18:34;;;;;;;1.42;1.00;;;;;;;;;;5049985;28;20257;-61
2022/10/21 12:21:01;;;;;;;1.33;0.93;;;;;;;;;;5060219;28;20296;-63
2022/10/21 12:23:30;;;;;;;2.10;1.25;;;;;;;;;;5059464;28;20288;-62
2022/10/21 12:26:27;;;;;;;2.15;0.90;;;;;;;;;;5056189;28;22097;-61
2022/10/21 12:28:57;;;;;;;4.43;3.22;;;;;;;;;;5034849;28;20236;-63
2022/10/21 12:31:44;;;;;;;20.88;12.88;;;;;;;;;;5060560;28;20200;-61
2022/10/21 12:34:12;;;;;;;3.22;2.30;;;;;;;;;;5053521;28;20206;-62
2022/10/21 12:36:39;;;;;;;1.20;1.13;;;;;;;;;;5054665;28;20205;-63
2022/10/21 12:39:30;;;;;;;3.13;2.83;;;;;;;;;;5069905;28;20222;-62
2022/10/21 12:42:18;;;;;;;5.38;3.92;;;;;;;;;;5048064;28;20232;-62
2022/10/21 12:44:47;;;;;;;1.60;1.50;;;;;;;;;;5049023;28;20216;-63
2022/10/21 12:47:25;;;;;;;1.80;1.23;;;;;;;;;;5049434;28;20342;-62
2022/10/21 12:50:04;;;;;;;1.13;1.02;;;;;;;;;;5055464;28;20360;-61
2022/10/21 12:52:37;;;;;;;2.30;0.98;;;;;;;;;;5054936;28;20208;-62
2022/10/21 12:55:08;;;;;;;0.68;0.68;;;;;;;;;;5044075;28;20212;-62
2022/10/21 12:57:37;;;;;;;2.30;0.80;;;;;;;;;;5059117;28;20201;-62
2022/10/21 13:00:24;;;;;;;1.65;1.30;;;;;;;;;;5055770;28;20615;-62
2022/10/21 13:03:03;;;;;;;1.70;1.42;;;;;;;;;;5051551;28;20214;-63
2022/10/21 13:05:37;;;;;;;2.50;0.70;;;;;;;;;;5055043;28;20197;-61
2022/10/21 13:08:21;;;;;;;1.33;1.30;;;;;;;;;;5065012;28;20267;-62
2022/10/21 13:11:07;;;;;;;1.30;1.30;;;;;;;;;;5050422;28;20246;-61
2022/10/21 13:13:34;;;;;;;0.60;0.60;;;;;;;;;;5046187;28;20715;-62
2022/10/21 13:16:14;;;;;;;1.15;1.05;;;;;;;;;;5053543;28;20255;-61
2022/10/21 13:18:52;;;;;;;1.90;1.55;;;;;;;;;;5067685;28;20902;-62
2022/10/21 13:21:22;;;;;;;3.80;1.10;;;;;;;;;;5049118;28;20208;-62
2022/10/21 13:23:51;;;;;;;1.95;1.20;;;;;;;;;;5048784;28;21466;-62
2022/10/21 13:26:20;;;;;;;1.17;1.10;;;;;;;;;;5045436;28;20267;-60
2022/10/21 13:28:56;;;;;;;1.55;0.70;;;;;;;;;;5046925;28;20221;-61
2022/10/21 13:31:24;;;;;;;0.77;0.60;;;;;;;;;;5071891;28;20224;-62
2022/10/21 13:33:52;;;;;;;3.03;1.80;;;;;;;;;;5081111;28;20675;-61
2022/10/21 13:36:35;;;;;;;1.08;0.98;;;;;;;;;;5073268;28;20905;-62
2022/10/21 13:39:05;;;;;;;0.50;0.50;;;;;;;;;;5056382;28;20308;-61
2022/10/21 13:41:33;;;;;;;1.10;0.70;;;;;;;;;;5059124;28;20215;-61
2022/10/21 13:44:02;;;;;;;2.03;1.35;;;;;;;;;;5045109;28;20737;-61
2022/10/21 13:46:32;;;;;;;1.00;1.00;;;;;;;;;;5045035;28;20236;-61
2022/10/21 13:49:00;;;;;;;0.63;0.63;;;;;;;;;;5045617;28;20370;-61
2022/10/21 13:51:33;;;;;;;17.15;12.60;;;;;;;;;;5052688;28;20650;-62
2022/10/21 13:54:14;;;;;;;2.67;1.63;;;;;;;;;;5046833;28;20211;-63
2022/10/21 13:56:43;;;;;;;0.90;0.90;;;;;;;;;;5073037;28;20204;-64
2022/10/21 13:59:24;;;;;;;14.27;9.38;;;;;;;;;;5046245;28;20222;-61
2022/10/21 14:01:53;;;;;;;3.28;2.63;;;;;;;;;;5041506;28;20485;-61
2022/10/21 14:04:28;;;;;;;0.60;0.60;;;;;;;;;;5047131;28;20221;-61
2022/10/21 14:07:02;;;;;;;0.80;0.60;;;;;;;;;;5053754;28;20209;-61
2022/10/21 14:09:46;;;;;;;1.70;0.80;;;;;;;;;;5050926;28;20224;-63
2022/10/21 14:12:32;;;;;;;3.30;3.00;;;;;;;;;;5044165;28;20214;-61
2022/10/21 14:15:02;;;;;;;0.73;0.73;;;;;;;;;;5054788;28;22591;-62
2022/10/21 14:17:30;;;;;;;1.13;0.60;;;;;;;;;;5054401;28;20304;-61
2022/10/21 14:20:04;;;;;;;3.80;3.47;;;;;;;;;;5050234;28;20316;-63
2022/10/21 14:22:32;;;;;;;1.15;1.15;;;;;;;;;;5053906;28;20212;-62
2022/10/21 14:25:01;;;;;;;0.98;0.80;;;;;;;;;;5052230;28;20304;-63
2022/10/21 14:27:31;;;;;;;0.50;0.50;;;;;;;;;;5048796;28;20773;-61
2022/10/21 14:30:01;;;;;;;1.55;0.75;;;;;;;;;;5060004;28;20272;-61
2022/10/21 14:32:29;;;;;;;2.38;1.58;;;;;;;;;;5064820;28;20725;-61
2022/10/21 14:34:59;;;;;;;0.73;0.50;;;;;;;;;;5052396;28;20228;-62
2022/10/21 14:37:27;;;;;;;1.30;0.57;;;;;;;;;;5050132;28;20194;-61
2022/10/21 14:40:08;;;;;;;0.90;0.90;;;;;;;;;;5045888;28;20213;-62
2022/10/21 14:42:38;;;;;;;0.82;0.77;;;;;;;;;;5048282;28;20829;-61
2022/10/21 14:45:06;;;;;;;0.98;0.70;;;;;;;;;;5046629;28;20201;-61
2022/10/21 14:47:33;;;;;;;1.20;0.60;;;;;;;;;;5044546;28;20217;-61
2022/10/21 14:50:02;;;;;;;0.60;0.60;;;;;;;;;;5028442;28;21352;-62
2022/10/21 14:52:30;;;;;;;0.82;0.50;;;;;;;;;;5031366;28;20213;-62
2022/10/21 14:54:59;;;;;;;0.98;0.60;;;;;;;;;;5047770;28;20202;-61
2022/10/21 14:57:46;;;;;;;3.45;0.77;;;;;;;;;;5047043;28;20695;-62
2022/10/21 15:00:22;;;;;;;0.73;0.73;;;;;;;;;;5052871;28;20297;-61